createdAt,value
2018-09-18T00:00:44.061Z,11.00
2018-09-18T00:03:12.388Z,10.90
2018-09-18T00:05:40.621Z,10.90
2018-09-18T00:08:08.892Z,10.90
2018-09-18T00:10:37.091Z,10.90
2018-09-18T00:13:05.304Z,10.80
2018-09-18T00:15:33.540Z,10.80
2018-09-18T00:18:01.740Z,10.80
2018-09-18T00:20:29.941Z,10.80
2018-09-18T00:22:58.241Z,10.70
2018-09-18T00:25:26.463Z,10.70
2018-09-18T00:27:54.690Z,10.70
2018-09-18T00:30:22.904Z,10.70
2018-09-18T00:32:51.147Z,10.70
2018-09-18T00:35:19.425Z,10.70
2018-09-18T00:37:47.636Z,10.60
2018-09-18T00:40:15.877Z,10.60
2018-09-18T00:42:44.096Z,10.60
2018-09-18T00:45:12.311Z,10.60
2018-09-18T00:47:40.534Z,10.60
2018-09-18T00:50:08.749Z,10.70
2018-09-18T00:52:36.968Z,10.70
2018-09-18T00:55:05.179Z,10.80
2018-09-18T00:57:33.407Z,10.90
2018-09-18T01:00:01.628Z,10.90
2018-09-18T01:02:29.867Z,11.00
2018-09-18T01:04:58.079Z,11.00
2018-09-18T01:07:26.337Z,11.10
2018-09-18T01:09:54.704Z,11.10
2018-09-18T01:12:22.987Z,11.20
2018-09-18T01:14:51.238Z,11.30
2018-09-18T01:17:19.436Z,11.40
2018-09-18T01:19:47.793Z,11.50
2018-09-18T01:22:15.989Z,11.50
2018-09-18T01:24:44.191Z,11.60
2018-09-18T01:27:12.457Z,11.70
2018-09-18T01:29:41.564Z,11.80
2018-09-18T01:32:10.008Z,11.80
2018-09-18T01:34:38.208Z,11.90
2018-09-18T01:37:06.432Z,11.90
2018-09-18T01:39:34.692Z,11.90
2018-09-18T01:42:02.916Z,11.90
2018-09-18T01:44:31.107Z,11.90
2018-09-18T01:46:59.340Z,11.80
2018-09-18T01:49:27.564Z,11.80
2018-09-18T01:51:55.796Z,11.70
2018-09-18T01:54:24.058Z,11.70
2018-09-18T01:56:52.292Z,11.70
2018-09-18T01:59:20.888Z,11.60
2018-09-18T02:01:49.139Z,11.70
2018-09-18T02:04:17.340Z,11.60
2018-09-18T02:06:46.077Z,11.60
2018-09-18T02:09:14.293Z,11.60
2018-09-18T02:11:42.524Z,11.60
2018-09-18T02:14:10.752Z,11.60
2018-09-18T02:16:38.975Z,11.70
2018-09-18T02:19:07.176Z,11.70
2018-09-18T02:21:35.569Z,11.80
2018-09-18T02:24:03.900Z,11.80
2018-09-18T02:26:32.155Z,11.80
2018-09-18T02:29:00.432Z,11.80
2018-09-18T02:31:28.691Z,11.70
2018-09-18T02:33:56.909Z,11.70
2018-09-18T02:36:25.102Z,11.70
2018-09-18T02:38:53.318Z,11.60
2018-09-18T02:41:22.136Z,11.60
2018-09-18T02:43:50.324Z,11.60
2018-09-18T02:46:18.591Z,11.60
2018-09-18T02:48:46.839Z,11.50
2018-09-18T02:51:15.028Z,11.50
2018-09-18T02:53:43.271Z,11.50
2018-09-18T02:56:11.539Z,11.40
2018-09-18T02:58:39.760Z,11.40
2018-09-18T03:01:07.964Z,11.30
2018-09-18T03:03:36.180Z,11.20
2018-09-18T03:06:04.396Z,11.20
2018-09-18T03:08:32.592Z,11.10
2018-09-18T03:11:00.812Z,11.10
2018-09-18T03:13:29.053Z,11.10
2018-09-18T03:15:57.284Z,11.10
2018-09-18T03:18:25.620Z,11.20
2018-09-18T03:20:53.908Z,11.20
2018-09-18T03:23:22.113Z,11.20
2018-09-18T03:25:50.355Z,11.20
2018-09-18T03:28:18.625Z,11.20
2018-09-18T03:30:46.813Z,11.20
2018-09-18T03:33:15.028Z,11.20
2018-09-18T03:35:43.504Z,11.20
2018-09-18T03:38:11.729Z,11.20
2018-09-18T03:40:39.959Z,11.10
2018-09-18T03:43:08.180Z,11.10
2018-09-18T03:45:36.399Z,11.10
2018-09-18T03:48:04.644Z,11.00
2018-09-18T03:50:32.855Z,11.00
2018-09-18T03:53:01.112Z,10.90
2018-09-18T03:55:29.358Z,10.90
2018-09-18T03:57:57.596Z,11.00
2018-09-18T04:00:25.884Z,11.00
2018-09-18T04:02:54.196Z,11.00
2018-09-18T04:05:22.352Z,11.00
2018-09-18T04:07:50.556Z,11.00
2018-09-18T04:10:18.764Z,11.00
2018-09-18T04:12:46.979Z,11.10
2018-09-18T04:15:15.204Z,11.10
2018-09-18T04:17:43.412Z,11.10
2018-09-18T04:20:11.657Z,11.10
2018-09-18T04:22:39.884Z,11.10
2018-09-18T04:25:08.249Z,11.10
2018-09-18T04:27:36.736Z,11.10
2018-09-18T04:30:04.924Z,11.10
2018-09-18T04:32:33.352Z,11.10
2018-09-18T04:35:01.560Z,11.20
2018-09-18T04:37:29.816Z,11.20
2018-09-18T04:39:58.017Z,11.20
2018-09-18T04:42:26.239Z,11.30
2018-09-18T04:44:54.481Z,11.30
2018-09-18T04:47:22.708Z,11.40
2018-09-18T04:49:50.896Z,11.50
2018-09-18T04:52:19.119Z,11.50
2018-09-18T04:54:47.528Z,11.60
2018-09-18T04:57:15.665Z,11.70
2018-09-18T04:59:43.908Z,11.70
2018-09-18T05:02:12.533Z,11.90
2018-09-18T05:04:40.655Z,12.00
2018-09-18T05:07:08.885Z,12.10
2018-09-18T05:09:37.113Z,12.20
2018-09-18T05:12:05.392Z,12.30
2018-09-18T05:14:33.655Z,12.30
2018-09-18T05:17:01.879Z,12.30
2018-09-18T05:19:30.198Z,12.40
2018-09-18T05:21:58.421Z,12.30
2018-09-18T05:24:26.656Z,12.30
2018-09-18T05:26:54.851Z,12.20
2018-09-18T05:29:23.096Z,12.20
2018-09-18T05:31:51.295Z,12.30
2018-09-18T05:34:19.528Z,12.30
2018-09-18T05:36:47.727Z,12.30
2018-09-18T05:39:16.017Z,12.30
2018-09-18T05:41:44.225Z,12.30
2018-09-18T05:44:12.484Z,12.40
2018-09-18T05:46:40.733Z,12.40
2018-09-18T05:49:08.955Z,12.40
2018-09-18T05:51:37.159Z,12.50
2018-09-18T05:54:05.404Z,12.50
2018-09-18T05:56:34.481Z,12.50
2018-09-18T05:59:02.689Z,12.60
2018-09-18T06:01:30.991Z,12.60
2018-09-18T06:03:59.270Z,12.60
2018-09-18T06:06:27.528Z,12.60
2018-09-18T06:08:55.759Z,12.60
2018-09-18T06:11:23.974Z,12.60
2018-09-18T06:13:52.208Z,12.60
2018-09-18T06:16:20.448Z,12.70
2018-09-18T06:18:48.718Z,12.70
2018-09-18T06:21:16.896Z,12.70
2018-09-18T06:23:45.148Z,12.80
2018-09-18T06:26:13.460Z,12.80
2018-09-18T06:28:41.651Z,12.90
2018-09-18T06:31:09.921Z,13.00
2018-09-18T06:33:38.133Z,13.10
2018-09-18T06:36:06.426Z,13.20
2018-09-18T06:38:34.623Z,13.40
2018-09-18T06:41:02.878Z,13.50
2018-09-18T06:43:31.900Z,13.70
2018-09-18T06:46:00.132Z,13.90
2018-09-18T06:48:28.465Z,14.10
2018-09-18T06:50:56.655Z,14.30
2018-09-18T06:53:24.876Z,14.40
2018-09-18T06:55:53.067Z,14.60
2018-09-18T06:58:21.279Z,14.70
2018-09-18T07:00:49.520Z,14.80
2018-09-18T07:03:17.739Z,14.90
2018-09-18T07:05:46.381Z,15.00
2018-09-18T07:08:14.580Z,15.10
2018-09-18T07:10:42.808Z,15.30
2018-09-18T07:13:11.041Z,15.40
2018-09-18T07:15:39.376Z,15.50
2018-09-18T07:18:07.629Z,15.60
2018-09-18T07:20:35.804Z,15.80
2018-09-18T07:23:04.025Z,16.00
2018-09-18T07:25:32.381Z,16.10
2018-09-18T07:28:00.592Z,16.30
2018-09-18T07:30:28.800Z,16.40
2018-09-18T07:32:57.081Z,16.60
2018-09-18T07:35:25.271Z,16.80
2018-09-18T07:37:53.496Z,16.90
2018-09-18T07:40:21.688Z,17.10
2018-09-18T07:42:49.988Z,17.20
2018-09-18T07:45:18.255Z,17.30
2018-09-18T07:47:46.472Z,17.40
2018-09-18T07:50:14.751Z,17.50
2018-09-18T07:52:43.004Z,17.60
2018-09-18T07:55:11.217Z,17.70
2018-09-18T07:57:39.447Z,17.80
2018-09-18T08:00:07.940Z,17.90
2018-09-18T08:02:36.180Z,18.10
2018-09-18T08:05:04.468Z,18.20
2018-09-18T08:07:32.678Z,18.40
2018-09-18T08:10:00.903Z,18.50
2018-09-18T08:12:29.100Z,18.60
2018-09-18T08:14:58.248Z,18.70
2018-09-18T08:17:26.481Z,18.90
2018-09-18T08:19:54.776Z,19.00
2018-09-18T08:22:23.048Z,19.10
2018-09-18T08:24:51.256Z,19.30
2018-09-18T08:27:19.528Z,19.40
2018-09-18T08:29:47.763Z,19.50
2018-09-18T08:32:15.963Z,19.60
2018-09-18T08:34:44.192Z,19.70
2018-09-18T08:37:12.424Z,19.90
2018-09-18T08:39:40.913Z,20.00
2018-09-18T08:42:09.064Z,20.10
2018-09-18T08:44:37.264Z,20.30
2018-09-18T08:47:05.537Z,20.40
2018-09-18T08:49:33.727Z,20.60
2018-09-18T08:52:01.981Z,20.70
2018-09-18T08:54:30.384Z,20.80
2018-09-18T08:56:58.567Z,20.90
2018-09-18T08:59:33.555Z,21.10
2018-09-18T09:02:01.807Z,21.20
2018-09-18T09:04:30.051Z,21.30
2018-09-18T09:06:58.290Z,21.40
2018-09-18T09:09:26.550Z,21.60
2018-09-18T09:11:54.716Z,21.70
2018-09-18T09:14:22.997Z,21.80
2018-09-18T09:16:51.119Z,21.90
2018-09-18T09:19:19.349Z,22.00
2018-09-18T09:21:47.688Z,22.10
2018-09-18T09:24:15.844Z,22.30
2018-09-18T09:26:45.236Z,22.40
2018-09-18T09:29:13.478Z,22.50
2018-09-18T09:31:42.260Z,22.60
2018-09-18T09:34:10.479Z,22.70
2018-09-18T09:36:38.690Z,22.80
2018-09-18T09:39:09.501Z,22.80
2018-09-18T09:41:37.784Z,22.90
2018-09-18T09:44:06.000Z,23.00
2018-09-18T09:46:34.249Z,23.10
2018-09-18T09:49:02.437Z,23.20
2018-09-18T09:51:30.789Z,23.30
2018-09-18T09:53:58.936Z,23.30
2018-09-18T09:56:27.433Z,23.50
2018-09-18T09:58:55.624Z,23.60
2018-09-18T10:01:29.349Z,23.80
2018-09-18T10:03:57.547Z,23.80
2018-09-18T10:06:26.204Z,24.00
2018-09-18T10:08:54.467Z,24.00
2018-09-18T10:11:22.732Z,24.10
2018-09-18T10:13:50.964Z,24.20
2018-09-18T10:16:19.255Z,24.20
2018-09-18T10:18:47.496Z,24.30
2018-09-18T10:21:15.720Z,24.40
2018-09-18T10:23:43.960Z,24.40
2018-09-18T10:26:12.224Z,24.50
2018-09-18T10:28:40.394Z,24.50
2018-09-18T10:31:08.596Z,24.60
2018-09-18T10:33:36.784Z,24.60
2018-09-18T10:36:05.007Z,24.70
2018-09-18T10:38:33.256Z,24.90
2018-09-18T10:41:01.575Z,25.00
2018-09-18T10:43:29.685Z,25.10
2018-09-18T10:45:57.954Z,25.20
2018-09-18T10:48:26.171Z,25.30
2018-09-18T10:50:54.358Z,25.40
2018-09-18T10:53:22.571Z,25.50
2018-09-18T10:55:50.793Z,25.60
2018-09-18T10:58:18.996Z,25.60
2018-09-18T11:00:47.227Z,25.50
2018-09-18T11:03:15.447Z,25.60
2018-09-18T11:05:43.733Z,25.80
2018-09-18T11:08:12.040Z,26.00
2018-09-18T11:10:40.156Z,26.20
2018-09-18T11:13:08.446Z,26.40
2018-09-18T11:15:36.716Z,26.60
2018-09-18T11:18:04.975Z,26.80
2018-09-18T11:20:33.143Z,27.10
2018-09-18T11:23:01.750Z,27.30
2018-09-18T11:25:30.001Z,27.50
2018-09-18T11:27:58.214Z,27.70
2018-09-18T11:30:26.431Z,27.90
2018-09-18T11:32:54.771Z,28.00
2018-09-18T11:35:22.839Z,28.10
2018-09-18T11:37:51.756Z,28.20
2018-09-18T11:40:19.956Z,28.20
2018-09-18T11:42:48.157Z,28.20
2018-09-18T11:45:16.388Z,28.30
2018-09-18T11:47:44.624Z,28.40
2018-09-18T11:50:12.848Z,28.50
2018-09-18T11:52:41.105Z,28.60
2018-09-18T11:55:09.285Z,28.80
2018-09-18T11:57:37.524Z,29.00
2018-09-18T12:00:05.724Z,29.00
2018-09-18T12:02:34.945Z,29.00
2018-09-18T12:05:03.198Z,29.00
2018-09-18T12:07:31.369Z,29.00
2018-09-18T12:09:59.600Z,29.10
2018-09-18T12:12:27.801Z,29.20
2018-09-18T12:14:56.016Z,29.40
2018-09-18T12:17:24.212Z,29.40
2018-09-18T12:19:52.788Z,29.30
2018-09-18T12:22:21.082Z,29.30
2018-09-18T12:24:49.240Z,29.20
2018-09-18T12:27:17.866Z,29.20
2018-09-18T12:29:46.069Z,29.20
2018-09-18T12:32:14.297Z,29.20
2018-09-18T12:34:42.521Z,29.20
2018-09-18T12:37:10.861Z,29.10
2018-09-18T12:39:39.056Z,29.10
2018-09-18T12:42:07.492Z,29.20
2018-09-18T12:44:35.596Z,29.20
2018-09-18T12:47:03.828Z,29.20
2018-09-18T12:49:32.242Z,29.20
2018-09-18T12:52:00.756Z,29.20
2018-09-18T12:54:29.088Z,29.20
2018-09-18T12:56:57.458Z,29.30
2018-09-18T12:59:25.680Z,29.40
2018-09-18T13:01:53.876Z,29.50
2018-09-18T13:04:22.111Z,29.70
2018-09-18T13:06:50.431Z,30.00
2018-09-18T13:09:18.619Z,30.30
2018-09-18T13:11:46.828Z,30.60
2018-09-18T13:14:15.137Z,30.70
2018-09-18T13:16:43.360Z,30.90
2018-09-18T13:19:11.688Z,31.10
2018-09-18T13:21:39.912Z,31.20
2018-09-18T13:24:08.174Z,31.20
2018-09-18T13:26:36.503Z,31.20
2018-09-18T13:29:04.685Z,31.20
2018-09-18T13:31:32.880Z,31.00
2018-09-18T13:34:01.104Z,30.80
2018-09-18T13:36:29.389Z,30.70
2018-09-18T13:38:57.587Z,30.60
2018-09-18T13:41:25.986Z,30.50
2018-09-18T13:43:54.027Z,30.30
2018-09-18T13:46:22.309Z,30.20
2018-09-18T13:48:50.459Z,30.20
2018-09-18T13:51:19.129Z,30.10
2018-09-18T13:53:47.357Z,30.00
2018-09-18T13:56:15.669Z,29.80
2018-09-18T13:58:43.897Z,29.70
2018-09-18T14:01:12.244Z,29.60
2018-09-18T14:03:40.445Z,29.60
2018-09-18T14:06:08.772Z,29.60
2018-09-18T14:08:37.070Z,29.40
2018-09-18T14:11:05.260Z,29.40
2018-09-18T14:13:34.104Z,29.20
2018-09-18T14:16:02.319Z,29.20
2018-09-18T14:18:30.524Z,29.20
2018-09-18T14:20:58.761Z,29.10
2018-09-18T14:23:26.976Z,29.20
2018-09-18T14:25:55.176Z,29.20
2018-09-18T14:28:23.448Z,29.30
2018-09-18T14:30:51.692Z,29.20
2018-09-18T14:33:19.921Z,29.30
2018-09-18T14:35:48.570Z,29.30
2018-09-18T14:38:16.810Z,29.30
2018-09-18T14:40:45.068Z,29.30
2018-09-18T14:43:13.308Z,29.30
2018-09-18T14:45:41.545Z,29.30
2018-09-18T14:48:09.756Z,29.40
2018-09-18T14:50:37.990Z,29.40
2018-09-18T14:53:06.266Z,29.50
2018-09-18T14:55:34.514Z,29.50
2018-09-18T14:58:02.849Z,29.40
2018-09-18T15:00:31.056Z,29.30
2018-09-18T15:02:59.292Z,29.20
2018-09-18T15:05:27.541Z,29.00
2018-09-18T15:07:55.787Z,28.90
2018-09-18T15:10:30.676Z,28.80
2018-09-18T15:12:58.940Z,28.70
2018-09-18T15:15:27.251Z,28.60
2018-09-18T15:17:55.532Z,28.40
2018-09-18T15:20:23.753Z,28.20
2018-09-18T15:22:55.439Z,28.00
2018-09-18T15:25:23.700Z,27.80
2018-09-18T15:27:52.117Z,27.60
2018-09-18T15:30:20.669Z,27.40
2018-09-18T15:32:48.948Z,27.30
2018-09-18T15:35:17.198Z,27.10
2018-09-18T15:37:45.541Z,27.00
2018-09-18T15:40:13.812Z,26.80
2018-09-18T15:42:42.051Z,26.70
2018-09-18T15:45:10.369Z,26.60
2018-09-18T15:47:38.583Z,26.40
2018-09-18T15:50:06.838Z,26.30
2018-09-18T15:52:35.078Z,26.20
2018-09-18T15:55:03.383Z,26.20
2018-09-18T15:57:31.559Z,26.10
2018-09-18T15:59:59.898Z,26.00
2018-09-18T16:02:28.159Z,26.00
2018-09-18T16:04:56.440Z,26.00
2018-09-18T16:07:24.664Z,26.00
2018-09-18T16:09:52.945Z,25.90
2018-09-18T16:12:21.076Z,25.90
2018-09-18T16:14:49.407Z,25.90
2018-09-18T16:17:17.528Z,25.90
2018-09-18T16:19:45.775Z,25.90
2018-09-18T16:22:15.002Z,25.90
2018-09-18T16:24:43.329Z,25.80
2018-09-18T16:27:12.128Z,25.70
2018-09-18T16:29:40.683Z,25.70
2018-09-18T16:32:08.892Z,25.60
2018-09-18T16:34:37.176Z,25.50
2018-09-18T16:37:05.368Z,25.50
2018-09-18T16:39:33.589Z,25.40
2018-09-18T16:42:01.834Z,25.30
2018-09-18T16:44:30.083Z,25.20
2018-09-18T16:46:58.549Z,25.20
2018-09-18T16:49:26.752Z,25.10
2018-09-18T16:51:54.960Z,25.10
2018-09-18T16:54:23.250Z,25.10
2018-09-18T16:56:51.441Z,25.10
2018-09-18T16:59:19.717Z,25.10
2018-09-18T17:01:47.997Z,25.00
2018-09-18T17:04:16.198Z,25.00
2018-09-18T17:06:44.609Z,24.90
2018-09-18T17:09:12.882Z,24.80
2018-09-18T17:11:41.116Z,24.80
2018-09-18T17:14:09.385Z,24.70
2018-09-18T17:16:37.668Z,24.60
2018-09-18T17:19:05.964Z,24.60
2018-09-18T17:21:34.215Z,24.50
2018-09-18T17:24:02.408Z,24.40
2018-09-18T17:26:31.495Z,24.40
2018-09-18T17:28:59.885Z,24.20
2018-09-18T17:31:28.193Z,24.10
2018-09-18T17:33:56.586Z,24.00
2018-09-18T17:36:24.872Z,23.90
2018-09-18T17:38:53.151Z,23.80
2018-09-18T17:41:21.608Z,23.70
2018-09-18T17:43:50.848Z,23.60
2018-09-18T17:46:19.058Z,23.50
2018-09-18T17:48:47.300Z,23.40
2018-09-18T17:51:15.527Z,23.20
2018-09-18T17:53:44.023Z,23.10
2018-09-18T17:56:12.260Z,23.00
2018-09-18T17:58:40.480Z,22.90
2018-09-18T18:01:08.707Z,22.80
2018-09-18T18:03:36.996Z,22.70
2018-09-18T18:06:05.285Z,22.60
2018-09-18T18:08:33.812Z,22.50
2018-09-18T18:11:02.092Z,22.40
2018-09-18T18:13:30.247Z,22.30
2018-09-18T18:15:58.460Z,22.20
2018-09-18T18:18:26.685Z,22.10
2018-09-18T18:20:55.039Z,22.00
2018-09-18T18:23:23.183Z,21.90
2018-09-18T18:25:51.391Z,21.70
2018-09-18T18:28:19.642Z,21.70
2018-09-18T18:30:48.560Z,21.60
2018-09-18T18:33:16.860Z,21.50
2018-09-18T18:35:51.560Z,21.40
2018-09-18T18:38:19.785Z,21.30
2018-09-18T18:40:48.564Z,21.30
2018-09-18T18:43:16.725Z,21.20
2018-09-18T18:45:44.973Z,21.20
2018-09-18T18:48:14.451Z,21.20
2018-09-18T18:50:42.636Z,21.10
2018-09-18T18:53:11.285Z,21.10
2018-09-18T18:55:39.720Z,21.10
2018-09-18T18:58:08.032Z,21.00
2018-09-18T19:00:36.681Z,21.00
2018-09-18T19:03:04.843Z,20.90
2018-09-18T19:05:33.078Z,20.90
2018-09-18T19:08:01.291Z,20.80
2018-09-18T19:10:29.554Z,20.70
2018-09-18T19:12:57.763Z,20.70
2018-09-18T19:15:27.534Z,20.60
2018-09-18T19:17:55.769Z,20.60
2018-09-18T19:20:24.043Z,20.60
2018-09-18T19:22:52.267Z,20.60
2018-09-18T19:25:20.539Z,20.60
2018-09-18T19:27:48.848Z,20.50
2018-09-18T19:30:17.226Z,20.50
2018-09-18T19:32:45.606Z,20.50
2018-09-18T19:35:20.132Z,20.40
2018-09-18T19:37:48.423Z,20.20
2018-09-18T19:40:16.679Z,20.10
2018-09-18T19:42:45.036Z,20.00
2018-09-18T19:45:13.262Z,19.90
2018-09-18T19:47:41.514Z,19.80
2018-09-18T19:50:14.887Z,19.80
2018-09-18T19:52:43.822Z,19.80
2018-09-18T19:55:12.323Z,19.70
2018-09-18T19:57:40.606Z,19.70
2018-09-18T20:00:09.531Z,19.60
2018-09-18T20:02:37.804Z,19.60
2018-09-18T20:05:06.034Z,19.60
2018-09-18T20:07:34.374Z,19.50
2018-09-18T20:10:02.971Z,19.50
2018-09-18T20:12:31.210Z,19.50
2018-09-18T20:14:59.504Z,19.40
2018-09-18T20:17:27.817Z,19.40
2018-09-18T20:19:56.289Z,19.40
2018-09-18T20:22:25.163Z,19.40
2018-09-18T20:24:53.366Z,19.40
2018-09-18T20:27:21.988Z,19.30
2018-09-18T20:29:50.238Z,19.30
2018-09-18T20:32:18.492Z,19.30
2018-09-18T20:34:46.695Z,19.20
2018-09-18T20:37:15.196Z,19.20
2018-09-18T20:39:43.512Z,19.20
2018-09-18T20:42:11.767Z,19.20
2018-09-18T20:44:40.058Z,19.30
2018-09-18T20:47:08.324Z,19.30
2018-09-18T20:49:36.572Z,19.30
2018-09-18T20:52:04.789Z,19.30
2018-09-18T20:54:33.038Z,19.30
2018-09-18T20:57:01.282Z,19.30
2018-09-18T20:59:29.534Z,19.30
2018-09-18T21:01:58.012Z,19.30
2018-09-18T21:04:26.223Z,19.30
2018-09-18T21:06:54.443Z,19.20
2018-09-18T21:09:22.706Z,19.20
2018-09-18T21:11:50.927Z,19.20
2018-09-18T21:14:19.404Z,19.20
2018-09-18T21:16:47.711Z,19.10
2018-09-18T21:19:15.988Z,19.10
2018-09-18T21:21:44.214Z,19.10
2018-09-18T21:24:12.516Z,19.10
2018-09-18T21:26:40.756Z,19.10
2018-09-18T21:29:08.971Z,19.10
2018-09-18T21:31:37.195Z,19.00
2018-09-18T21:34:05.470Z,19.00
2018-09-18T21:36:34.297Z,19.00
2018-09-18T21:39:02.576Z,19.00
2018-09-18T21:41:30.814Z,19.00
2018-09-18T21:43:59.129Z,19.00
2018-09-18T21:46:27.332Z,18.90
2018-09-18T21:48:56.564Z,18.90
2018-09-18T21:51:24.825Z,18.80
2018-09-18T21:53:53.037Z,18.70
2018-09-18T21:56:21.251Z,18.70
2018-09-18T21:58:49.477Z,18.60
2018-09-18T22:01:17.776Z,18.50
2018-09-18T22:03:46.000Z,18.40
2018-09-18T22:06:14.288Z,18.30
2018-09-18T22:08:42.579Z,18.30
2018-09-18T22:11:10.872Z,18.20
2018-09-18T22:13:39.064Z,18.10
2018-09-18T22:16:07.287Z,18.00
2018-09-18T22:18:35.510Z,17.80
2018-09-18T22:21:03.728Z,17.80
2018-09-18T22:23:31.965Z,17.80
2018-09-18T22:26:00.206Z,17.70
2018-09-18T22:28:28.436Z,17.80
2018-09-18T22:30:56.723Z,17.80
2018-09-18T22:33:25.064Z,17.90
2018-09-18T22:35:53.294Z,17.90
2018-09-18T22:38:21.516Z,17.90
2018-09-18T22:40:49.722Z,17.90
2018-09-18T22:43:18.014Z,18.00
2018-09-18T22:45:46.172Z,17.90
2018-09-18T22:48:14.455Z,17.90
2018-09-18T22:50:42.697Z,17.90
2018-09-18T22:53:10.961Z,17.90
2018-09-18T22:55:39.170Z,17.90
2018-09-18T22:58:07.389Z,17.80
2018-09-18T23:00:35.687Z,17.80
2018-09-18T23:03:03.912Z,17.80
2018-09-18T23:05:32.119Z,17.70
2018-09-18T23:08:00.358Z,17.60
2018-09-18T23:10:29.509Z,17.40
2018-09-18T23:12:57.736Z,17.40
2018-09-18T23:15:25.937Z,17.30
2018-09-18T23:17:54.143Z,17.20
2018-09-18T23:20:22.353Z,17.10
2018-09-18T23:22:50.554Z,17.00
2018-09-18T23:25:18.809Z,17.00
2018-09-18T23:27:47.772Z,16.90
2018-09-18T23:30:15.980Z,16.80
2018-09-18T23:32:45.073Z,16.70
2018-09-18T23:35:13.303Z,16.60
2018-09-18T23:37:41.545Z,16.60
2018-09-18T23:40:10.356Z,16.50
2018-09-18T23:42:38.626Z,16.50
2018-09-18T23:45:06.843Z,16.40
2018-09-18T23:47:35.070Z,16.40
2018-09-18T23:50:03.341Z,16.50
2018-09-18T23:52:31.574Z,16.40
2018-09-18T23:54:59.836Z,16.40
2018-09-18T23:57:28.075Z,16.30
2018-09-18T23:59:56.307Z,16.20
